Time;durP1;ratioP1;P1;durP2;ratioP2;P2;SDS_P1;SDS_P2;PMS_P1;PMS_P2;Temp;Humidity;BMP_temperature;BMP_pressure;BME280_temperature;BME280_humidity;BME280_pressure;Samples;Min_cycle;Max_cycle;Signal;HPM_P1;HPM_P2
2022/08/26 08:02:07;;;;;;;7.18;2.33;;;;;;;21.08;82.01;101492.13;5280307;28;20405;-68
2022/08/26 08:04:38;;;;;;;7.95;1.67;;;;;;;21.17;81.51;101492.06;5279220;28;20025;-67
2022/08/26 08:07:09;;;;;;;8.23;5.30;;;;;;;21.22;81.15;101492.66;5279867;28;20055;-68
2022/08/26 08:09:41;;;;;;;40.45;36.30;;;;;;;21.25;81.47;101494.78;5279202;28;20025;-67
2022/08/26 08:12:12;;;;;;;17.65;14.50;;;;;;;21.23;80.68;101493.47;5280758;28;20519;-68
2022/08/26 08:14:45;;;;;;;5.93;2.53;;;;;;;21.44;79.51;101494.28;5258273;28;20117;-68
2022/08/26 08:17:16;;;;;;;5.28;1.90;;;;;;;21.34;78.71;101499.50;5257521;28;20417;-67
2022/08/26 08:19:50;;;;;;;6.13;1.98;;;;;;;21.36;78.93;101498.00;5261174;28;20032;-68
2022/08/26 08:22:22;;;;;;;4.72;1.55;;;;;;;21.33;76.78;101495.88;5257653;28;20488;-67
2022/08/26 08:24:54;;;;;;;5.63;1.70;;;;;;;21.43;77.02;101489.81;5257907;28;20074;-68
2022/08/26 08:27:26;;;;;;;8.10;2.22;;;;;;;21.40;76.63;101493.34;5275818;28;20032;-67
2022/08/26 08:29:57;;;;;;;3.03;1.45;;;;;;;21.39;76.80;101496.50;5265454;28;20029;-67
2022/08/26 08:32:29;;;;;;;4.13;1.70;;;;;;;21.35;76.28;101501.19;5257856;28;20025;-67
2022/08/26 08:35:01;;;;;;;6.38;2.08;;;;;;;21.31;76.76;101500.22;5264692;28;20523;-67
2022/08/26 08:37:34;;;;;;;4.50;1.67;;;;;;;21.30;76.89;101499.38;5278575;28;20028;-66
2022/08/26 08:40:07;;;;;;;5.85;1.98;;;;;;;21.40;76.60;101504.63;5279177;28;20379;-67
2022/08/26 08:43:05;;;;;;;5.82;1.63;;;;;;;21.50;76.12;101497.72;5279208;28;20090;-68
2022/08/26 08:45:52;;;;;;;2.97;1.48;;;;;;;21.56;75.27;101495.50;5275276;28;20055;-65
2022/08/26 08:48:29;;;;;;;5.65;2.75;;;;;;;21.49;75.93;101501.69;5261454;28;20501;-66
2022/08/26 08:51:21;;;;;;;13.00;11.70;;;;;;;21.53;75.56;101496.22;5278978;28;20029;-65
2022/08/26 08:53:54;;;;;;;6.85;2.75;;;;;;;21.70;75.51;101510.09;5270571;28;20044;-65
2022/08/26 08:56:45;;;;;;;5.70;1.77;;;;;;;21.83;75.03;101499.66;5279137;28;20537;-66
2022/08/26 08:59:19;;;;;;;4.95;1.80;;;;;;;21.78;74.84;101499.88;5278001;28;20476;-67
2022/08/26 09:01:50;;;;;;;4.78;1.80;;;;;;;21.76;74.50;101505.06;5278608;28;20194;-66
2022/08/26 09:04:46;;;;;;;10.87;5.20;;;;;;;21.76;74.85;101505.06;5261609;28;20029;-67
2022/08/26 09:07:24;;;;;;;9.43;6.60;;;;;;;21.68;74.70;101507.66;5277136;28;20276;-67
2022/08/26 09:10:16;;;;;;;2.72;1.58;;;;;;;21.64;74.67;101506.69;5266572;28;20340;-66
2022/08/26 09:12:48;;;;;;;4.07;1.40;;;;;;;21.53;74.66;101513.13;5262871;28;20150;-67
2022/08/26 09:15:25;;;;;;;4.07;1.38;;;;;;;21.63;74.78;101507.88;5260135;28;20111;-67
2022/08/26 09:18:15;;;;;;;4.53;1.52;;;;;;;21.75;74.70;101506.22;5255978;28;20067;-67
2022/08/26 09:21:02;;;;;;;7.43;1.98;;;;;;;21.91;74.26;101507.22;5261437;28;20090;-68
2022/08/26 09:23:36;;;;;;;4.57;1.80;;;;;;;21.88;74.23;101502.25;5250532;28;20080;-67
2022/08/26 09:26:41;;;;;;;7.40;1.58;;;;;;;21.91;74.40;101507.22;5285433;28;20025;-67
2022/08/26 09:29:41;;;;;;;4.28;1.70;;;;;;;21.95;73.64;101512.97;5283168;28;20025;-67
2022/08/26 09:32:24;;;;;;;5.75;1.42;;;;;;;21.91;72.92;101519.31;5280765;28;20130;-68
2022/08/26 09:34:59;;;;;;;5.00;1.92;;;;;;;21.95;72.76;101518.63;5251440;28;20133;-68
2022/08/26 09:37:41;;;;;;;;;;;;;;;22.00;72.69;101516.38;5266846;28;20029;-68
2022/08/26 09:40:31;;;;;;;6.55;2.03;;;;;;;21.89;73.28;101523.69;5250345;28;19927;-67
2022/08/26 09:43:18;;;;;;;7.15;2.30;;;;;;;21.83;73.74;101522.25;5242502;28;20032;-68
2022/08/26 09:45:53;;;;;;;5.93;1.40;;;;;;;;;;5243293;28;20028;-68
2022/08/26 09:48:39;;;;;;;7.75;1.95;;;;;;;21.83;73.77;101519.41;5242573;28;20029;-67
2022/08/26 09:51:21;;;;;;;6.90;1.77;;;;;;;21.92;73.03;101522.97;5243099;28;20021;-67
2022/08/26 09:53:59;;;;;;;5.32;1.98;;;;;;;21.85;73.54;101531.19;5248054;28;20434;-68
2022/08/26 09:56:35;;;;;;;5.47;1.92;;;;;;;21.82;73.64;101532.72;5262866;28;20067;-66
2022/08/26 09:59:10;;;;;;;11.27;2.25;;;;;;;21.85;73.54;101523.53;5263810;28;20021;-66
2022/08/26 10:01:43;;;;;;;20.15;15.45;;;;;;;21.92;73.52;101528.63;5248824;28;20051;-67
2022/08/26 10:04:25;;;;;;;41.45;37.03;;;;;;;21.96;73.21;101535.22;5263520;28;20048;-67
2022/08/26 10:06:58;;;;;;;7.25;3.58;;;;;;;21.74;73.17;101530.00;5273207;28;20368;-67
2022/08/26 10:09:37;;;;;;;4.85;1.85;;;;;;;21.76;73.40;101524.84;5264691;28;20094;-67
2022/08/26 10:12:20;;;;;;;4.00;1.80;;;;;;;21.98;72.43;101530.03;5272961;28;20037;-68
2022/08/26 10:14:57;;;;;;;11.90;2.67;;;;;;;21.96;72.39;101521.09;5264249;28;20033;-67
2022/08/26 10:18:15;;;;;;;4.78;2.10;;;;;;;21.93;72.42;101524.59;5263323;28;20360;-65
2022/08/26 10:20:57;;;;;;;6.82;1.50;;;;;;;21.96;72.14;101521.09;5268687;28;20068;-65
2022/08/26 10:23:35;;;;;;;6.57;2.45;;;;;;;21.89;72.46;101527.31;5261896;28;20082;-64
2022/08/26 10:26:23;;;;;;;6.30;2.10;;;;;;;21.93;72.45;101519.81;5258588;28;20071;-65
2022/08/26 10:29:16;;;;;;;5.53;1.27;;;;;;;22.03;71.77;101515.69;5258891;28;20112;-65
2022/08/26 10:32:01;;;;;;;4.50;1.25;;;;;;;21.92;72.02;101514.50;5271638;28;20028;-66
2022/08/26 10:34:32;;;;;;;5.82;1.83;;;;;;;21.95;71.86;101516.63;5263496;28;20386;-66
2022/08/26 10:37:13;;;;;;;4.45;1.55;;;;;;;22.04;71.64;101520.16;5278021;28;20066;-66
2022/08/26 10:39:49;;;;;;;5.78;1.55;;;;;;;22.05;71.85;101518.97;5274256;28;20471;-66
2022/08/26 10:42:34;;;;;;;6.28;1.63;;;;;;;22.00;71.65;101521.22;5269392;28;20032;-65
2022/08/26 10:45:08;;;;;;;6.10;2.08;;;;;;;22.05;71.32;101513.34;5271513;28;20033;-65
2022/08/26 10:48:12;;;;;;;4.35;1.42;;;;;;;22.15;71.00;101518.50;5263802;28;20028;-68
2022/08/26 10:50:45;;;;;;;6.25;1.48;;;;;;;22.06;70.78;101514.16;5262138;28;20127;-67
2022/08/26 10:53:35;;;;;;;7.38;1.85;;;;;;;22.13;70.99;101520.88;5274902;28;20069;-68
2022/08/26 10:56:36;;;;;;;6.35;1.50;;;;;;;22.06;70.92;101515.00;5274925;28;20459;-66
2022/08/26 10:59:28;;;;;;;5.28;2.10;;;;;;;21.99;70.74;101520.41;5256904;28;20024;-67
2022/08/26 11:02:41;;;;;;;4.95;1.65;;;;;;;21.99;70.98;101519.59;5254142;28;20519;-67
2022/08/26 11:05:22;;;;;;;21.63;15.93;;;;;;;22.01;70.41;101522.84;5264459;28;20093;-67
2022/08/26 11:08:19;;;;;;;8.77;4.63;;;;;;;21.93;70.71;101527.44;5272510;28;20060;-66
2022/08/26 11:10:50;;;;;;;14.65;10.30;;;;;;;21.85;70.77;101528.38;5263153;28;20091;-66
2022/08/26 11:13:57;;;;;;;3.73;1.30;;;;;;;21.95;70.98;101525.09;5267483;28;20032;-67
2022/08/26 11:16:42;;;;;;;4.15;1.27;;;;;;;21.77;70.66;101523.66;5265995;28;20272;-67
2022/08/26 11:19:39;;;;;;;4.97;1.57;;;;;;;21.81;70.66;101525.44;5253474;28;20020;-67
2022/08/26 11:22:26;;;;;;;4.15;1.48;;;;;;;21.80;70.85;101525.78;5277648;28;20290;-66
2022/08/26 11:24:57;;;;;;;5.30;1.63;;;;;;;21.64;70.90;101523.63;5265837;28;20138;-66
2022/08/26 11:27:34;;;;;;;9.00;2.00;;;;;;;21.81;71.07;101524.63;5272802;28;20111;-66
2022/08/26 11:30:12;;;;;;;3.15;1.27;;;;;;;21.70;71.61;101518.56;5256332;28;20492;-66
2022/08/26 11:32:50;;;;;;;4.07;1.63;;;;;;;21.67;71.44;101522.91;5275707;28;20028;-67
2022/08/26 11:35:24;;;;;;;5.53;2.83;;;;;;;21.52;71.78;101517.94;5262946;28;20039;-67
2022/08/26 11:38:00;;;;;;;4.97;1.58;;;;;;;21.70;71.68;101519.41;5241388;28;20219;-67
2022/08/26 11:40:36;;;;;;;6.20;2.05;;;;;;;21.59;71.58;101525.84;5258374;28;20075;-67
2022/08/26 11:43:20;;;;;;;4.97;3.15;;;;;;;21.52;72.42;101529.22;5253517;28;20017;-66
2022/08/26 11:46:00;;;;;;;3.80;1.60;;;;;;;21.50;72.00;101525.94;5271560;28;20419;-68
2022/08/26 11:48:35;;;;;;;6.35;2.17;;;;;;;21.44;71.86;101532.97;5272028;28;20585;-68
2022/08/26 11:51:10;;;;;;;5.22;1.67;;;;;;;21.50;72.14;101525.94;5278135;28;20033;-67
2022/08/26 11:53:45;;;;;;;8.15;5.30;;;;;;;21.52;72.24;101526.41;5275883;28;20375;-67
2022/08/26 11:56:25;;;;;;;5.53;1.70;;;;;;;21.47;72.76;101529.44;5278632;28;20081;-67
2022/08/26 11:58:59;;;;;;;5.63;1.50;;;;;;;21.56;72.46;101535.84;5271850;28;20020;-67
2022/08/26 12:01:34;;;;;;;8.77;1.67;;;;;;;21.59;72.50;101535.13;5275134;28;20127;-68
2022/08/26 12:04:09;;;;;;;4.88;1.50;;;;;;;21.45;72.31;101535.44;5273851;28;20439;-67
2022/08/26 12:06:50;;;;;;;9.95;1.52;;;;;;;21.62;71.84;101539.25;5265564;28;20079;-67
2022/08/26 12:09:25;;;;;;;4.65;1.30;;;;;;;21.58;72.15;101544.78;5265400;28;20138;-66
2022/08/26 12:12:21;;;;;;;9.20;5.82;;;;;;;21.60;71.97;101536.78;5251763;28;20104;-65
2022/08/26 12:15:15;;;;;;;5.85;2.97;;;;;;;21.64;72.06;101536.91;5277496;28;20073;-66
2022/08/26 12:17:49;;;;;;;4.57;1.35;;;;;;;21.43;72.53;101532.16;5269889;28;20055;-66
2022/08/26 12:20:47;;;;;;;5.93;3.15;;;;;;;21.71;71.78;101538.00;5266732;28;20108;-67
2022/08/26 12:23:40;;;;;;;5.60;1.83;;;;;;;21.75;71.82;101532.47;5273773;28;20033;-67
2022/08/26 12:26:27;;;;;;;6.63;1.60;;;;;;;21.74;70.98;101536.47;5264168;28;20029;-67
2022/08/26 12:29:02;;;;;;;5.30;2.10;;;;;;;21.67;71.51;101531.38;5276728;28;20159;-67
2022/08/26 12:31:40;;;;;;;5.32;1.52;;;;;;;21.78;71.39;101533.75;5261837;28;20043;-67
2022/08/26 12:34:15;;;;;;;6.40;1.40;;;;;;;21.76;70.69;101533.31;5273949;28;20039;-67
2022/08/26 12:36:54;;;;;;;3.78;1.55;;;;;;;21.77;70.69;101534.94;5248494;28;20033;-67
2022/08/26 12:39:29;;;;;;;5.63;1.77;;;;;;;21.86;70.62;101535.69;5280529;28;20017;-66
2022/08/26 12:42:20;;;;;;;5.70;1.60;;;;;;;21.80;70.20;101542.72;5263874;28;20037;-67
2022/08/26 12:45:05;;;;;;;3.92;1.70;;;;;;;21.84;70.53;101540.84;5254132;28;20105;-65
2022/08/26 12:47:41;;;;;;;6.20;1.70;;;;;;;21.77;70.20;101543.41;5270109;28;20062;-67
2022/08/26 12:50:22;;;;;;;5.70;1.45;;;;;;;21.76;70.68;101533.31;5272533;28;20025;-67
2022/08/26 12:53:03;;;;;;;4.20;1.35;;;;;;;21.69;70.72;101539.50;5278776;28;20032;-66
2022/08/26 12:55:56;;;;;;;3.08;1.20;;;;;;;21.90;70.48;101530.97;5264060;28;20040;-65
2022/08/26 12:58:35;;;;;;;5.22;1.70;;;;;;;21.89;70.46;101535.78;5262922;28;20021;-65
2022/08/26 13:01:07;;;;;;;6.60;1.65;;;;;;;22.17;69.95;101534.31;5259752;28;20057;-65
2022/08/26 13:03:42;;;;;;;7.45;2.20;;;;;;;21.94;69.56;101534.75;5264204;28;20387;-65
2022/08/26 13:06:19;;;;;;;6.78;2.20;;;;;;;21.95;70.01;101538.38;5262278;28;20029;-66
2022/08/26 13:08:54;;;;;;;6.25;2.30;;;;;;;21.98;69.49;101537.69;5264874;28;20066;-66
2022/08/26 13:11:48;;;;;;;4.47;1.55;;;;;;;22.01;69.85;101528.50;5264284;28;20169;-66
2022/08/26 13:14:22;;;;;;;4.40;1.48;;;;;;;21.97;69.51;101536.88;5261216;28;20040;-65
2022/08/26 13:16:53;;;;;;;4.70;1.85;;;;;;;21.95;69.69;101519.44;5262293;28;20041;-64
2022/08/26 13:19:24;;;;;;;6.75;1.50;;;;;;;22.00;69.51;101524.84;5262887;28;20124;-65
2022/08/26 13:21:58;;;;;;;8.70;7.88;;;;;;;21.92;69.49;101520.16;5261311;28;20033;-65
2022/08/26 13:24:34;;;;;;;4.80;1.65;;;;;;;21.89;69.89;101532.16;5255481;28;20448;-66
2022/08/26 13:27:08;;;;;;;5.53;1.98;;;;;;;21.86;69.39;101516.75;5257707;28;20380;-66
2022/08/26 13:29:40;;;;;;;4.45;1.75;;;;;;;21.93;69.41;101516.13;5266910;28;20021;-66
2022/08/26 13:32:12;;;;;;;2.65;1.15;;;;;;;21.80;69.71;101518.13;5243458;28;20029;-65
2022/08/26 13:34:47;;;;;;;5.35;1.92;;;;;;;21.69;69.62;101511.28;5246302;28;20017;-65
2022/08/26 13:37:21;;;;;;;9.27;2.35;;;;;;;21.69;69.99;101514.94;5259735;28;20440;-66
2022/08/26 13:39:53;;;;;;;6.40;2.30;;;;;;;21.64;69.62;101523.63;5259057;28;20207;-66
2022/08/26 13:42:25;;;;;;;5.68;1.60;;;;;;;21.65;70.02;101516.81;5270422;28;20078;-67
2022/08/26 13:44:56;;;;;;;4.10;1.40;;;;;;;21.66;69.53;101535.38;5285115;28;20055;-66
2022/08/26 13:47:28;;;;;;;3.55;2.03;;;;;;;21.57;70.65;101525.34;5260537;28;20048;-66
2022/08/26 13:50:00;;;;;;;8.90;6.60;;;;;;;21.48;71.90;101514.19;5264015;28;20419;-66
2022/08/26 13:52:31;;;;;;;12.93;11.65;;;;;;;21.38;73.95;101518.25;5253175;28;20026;-65
2022/08/26 13:55:03;;;;;;;4.75;2.20;;;;;;;21.33;76.56;101514.78;5242731;28;20033;-65
2022/08/26 13:57:34;;;;;;;5.65;2.13;;;;;;;21.13;79.00;101510.84;5263701;28;20025;-66
2022/08/26 14:00:08;;;;;;;5.78;2.17;;;;;;;20.89;81.47;101508.69;5254174;28;20392;-65
2022/08/26 14:02:39;;;;;;;3.40;2.05;;;;;;;21.07;80.94;101507.41;5241882;28;20028;-66
2022/08/26 14:05:12;;;;;;;4.90;2.08;;;;;;;20.90;82.70;101510.38;5243097;28;20021;-65
2022/08/26 14:07:43;;;;;;;7.43;2.40;;;;;;;20.80;84.21;101512.41;5242914;28;20034;-65
2022/08/26 14:10:15;;;;;;;7.25;2.60;;;;;;;20.88;84.82;101504.25;5251785;28;20025;-66
2022/08/26 14:12:46;;;;;;;4.05;2.20;;;;;;;21.06;83.45;101500.09;5241813;28;20033;-65
2022/08/26 14:15:17;;;;;;;4.90;1.60;;;;;;;21.03;82.38;101501.59;5252785;28;20518;-65
2022/08/26 14:17:52;;;;;;;4.03;1.45;;;;;;;21.09;81.59;101507.03;5263254;28;20028;-65
2022/08/26 14:20:26;;;;;;;5.88;1.80;;;;;;;21.12;81.18;101507.19;5262095;28;20044;-65
2022/08/26 14:22:57;;;;;;;4.43;2.20;;;;;;;21.05;82.98;101509.75;5251715;28;20498;-66
2022/08/26 14:25:29;;;;;;;4.88;2.20;;;;;;;20.90;84.16;101513.19;5246829;28;20100;-65
2022/08/26 14:28:00;;;;;;;6.35;3.28;;;;;;;21.11;85.97;101507.53;5263387;28;20380;-66
2022/08/26 14:30:32;;;;;;;7.15;2.63;;;;;;;21.36;86.77;101500.00;5256853;28;20032;-66
2022/08/26 14:33:03;;;;;;;5.47;2.58;;;;;;;21.37;86.91;101508.13;5255028;28;20028;-66
2022/08/26 14:35:35;;;;;;;5.82;2.85;;;;;;;21.27;86.95;101498.09;5263590;28;20029;-66
2022/08/26 14:38:06;;;;;;;7.30;6.15;;;;;;;21.10;85.84;101497.44;5262530;28;20029;-65
2022/08/26 14:40:39;;;;;;;15.63;13.95;;;;;;;21.24;86.89;101492.28;5263211;28;20033;-65
2022/08/26 14:43:13;;;;;;;7.50;3.95;;;;;;;21.21;86.78;101495.81;5254595;28;20029;-66
2022/08/26 14:45:45;;;;;;;8.18;3.42;;;;;;;21.25;86.72;101491.97;5242380;28;20026;-68
2022/08/26 14:48:17;;;;;;;7.05;3.30;;;;;;;21.30;87.92;101495.75;5243060;28;20033;-67
2022/08/26 14:50:48;;;;;;;14.30;11.48;;;;;;;21.20;88.85;101486.53;5241676;28;20067;-66
2022/08/26 14:56:10;;;;;;;7.53;4.32;;;;;;;21.30;88.04;101485.28;5242355;28;20037;-67
2022/08/26 14:58:42;;;;;;;6.82;2.97;;;;;;;21.19;87.60;101493.38;5240527;28;20448;-66
2022/08/26 15:01:14;;;;;;;6.00;3.83;;;;;;;21.31;89.85;101494.56;5257570;28;20049;-64
2022/08/26 15:03:46;;;;;;;4.63;2.95;;;;;;;21.38;88.67;101492.88;5260952;28;20042;-63
2022/08/26 15:06:17;;;;;;;7.03;3.20;;;;;;;21.54;88.96;101492.19;5242767;28;20021;-64
2022/08/26 15:08:49;;;;;;;4.97;3.40;;;;;;;21.38;87.44;101490.03;5258397;28;20016;-65
2022/08/26 15:11:20;;;;;;;7.50;3.83;;;;;;;21.53;86.57;101484.91;5282200;28;20017;-65
2022/08/26 15:13:52;;;;;;;7.70;3.40;;;;;;;21.67;88.84;101488.22;5267420;28;20044;-66
2022/08/26 15:16:25;;;;;;;7.00;3.45;;;;;;;21.69;87.56;101495.16;5260663;28;20013;-65
2022/08/26 15:18:56;;;;;;;6.53;2.92;;;;;;;21.63;86.99;101495.75;5240919;28;20026;-65
2022/08/26 15:21:28;;;;;;;8.07;3.38;;;;;;;21.44;85.18;101487.81;5241407;28;20094;-65
2022/08/26 15:24:00;;;;;;;6.40;3.10;;;;;;;21.58;86.63;101488.34;5241504;28;20117;-65
2022/08/26 15:26:32;;;;;;;5.75;2.80;;;;;;;21.60;84.49;101487.97;5279967;28;20394;-66
2022/08/26 15:29:04;;;;;;;10.13;4.40;;;;;;;21.70;84.69;101476.22;5283059;28;20017;-66
2022/08/26 15:31:36;;;;;;;6.05;3.05;;;;;;;21.76;84.25;101479.66;5283034;28;20107;-65
2022/08/26 15:34:12;;;;;;;5.97;2.63;;;;;;;21.82;83.06;101481.06;5267337;28;20096;-67
2022/08/26 15:36:45;;;;;;;6.30;2.70;;;;;;;21.92;83.65;101486.25;5259406;28;20029;-65
2022/08/26 15:39:17;;;;;;;6.00;3.35;;;;;;;21.92;82.24;101484.25;5257662;28;20426;-66
2022/08/26 15:41:49;;;;;;;6.55;2.65;;;;;;;21.85;80.32;101492.47;5272742;28;20033;-66
2022/08/26 15:44:21;;;;;;;3.88;2.20;;;;;;;21.87;79.33;101486.50;5282761;28;20414;-68
2022/08/26 15:46:53;;;;;;;3.80;2.30;;;;;;;21.80;77.57;101489.88;5252993;28;20055;-67
2022/08/26 15:49:27;;;;;;;9.50;2.53;;;;;;;21.81;76.67;101490.72;5262033;28;20029;-67
2022/08/26 15:51:58;;;;;;;7.22;3.33;;;;;;;21.86;76.08;101487.69;5256147;28;20496;-68
2022/08/26 15:54:31;;;;;;;3.13;2.72;;;;;;;21.83;77.81;101485.53;5260302;28;20060;-68
2022/08/26 15:57:02;;;;;;;9.40;4.32;;;;;;;21.85;77.62;101491.66;5261271;28;20036;-67
2022/08/26 15:59:34;;;;;;;6.00;2.63;;;;;;;21.71;76.68;101484.34;5244352;28;20103;-66
2022/08/26 16:02:06;;;;;;;9.40;2.15;;;;;;;21.76;74.96;101477.66;5239290;28;20099;-67
2022/08/26 16:04:37;;;;;;;7.53;2.70;;;;;;;21.80;75.58;101480.59;5240730;28;20071;-67
2022/08/26 16:07:08;;;;;;;4.28;2.15;;;;;;;21.82;76.00;101481.06;5239909;28;20021;-66
2022/08/26 16:09:40;;;;;;;5.35;2.45;;;;;;;21.70;74.75;101479.91;5258682;28;20033;-65
2022/08/26 16:12:11;;;;;;;4.75;2.40;;;;;;;21.77;75.02;101475.66;5257215;28;20025;-67
2022/08/26 16:14:42;;;;;;;4.82;1.83;;;;;;;21.58;74.75;101477.03;5239336;28;20480;-66
2022/08/26 16:17:13;;;;;;;6.45;2.30;;;;;;;21.57;73.81;101469.75;5243413;28;20021;-67
2022/08/26 16:19:45;;;;;;;6.45;2.03;;;;;;;21.69;74.40;101468.94;5261090;28;20033;-67
2022/08/26 16:22:17;;;;;;;6.88;2.28;;;;;;;21.61;73.75;101464.22;5255422;28;20033;-67
2022/08/26 16:24:48;;;;;;;7.30;2.28;;;;;;;21.68;72.83;101465.31;5260604;28;20075;-66
2022/08/26 16:27:19;;;;;;;7.93;2.40;;;;;;;21.66;73.30;101464.81;5245126;28;20039;-66
2022/08/26 16:29:51;;;;;;;6.30;2.47;;;;;;;21.48;73.51;101466.22;5244570;28;20031;-66
2022/08/26 16:32:22;;;;;;;5.95;2.30;;;;;;;21.63;73.83;101465.53;5244953;28;20026;-66
2022/08/26 16:34:53;;;;;;;5.32;2.70;;;;;;;21.48;74.16;101469.03;5256401;28;20025;-66
2022/08/26 16:37:25;;;;;;;6.45;2.72;;;;;;;21.53;73.85;101474.44;5263166;28;20500;-68
2022/08/26 16:39:57;;;;;;;25.00;22.30;;;;;;;21.54;73.45;101481.72;5263486;28;20118;-67
2022/08/26 16:42:30;;;;;;;8.20;6.25;;;;;;;21.47;74.23;101471.03;5259724;28;20079;-68
2022/08/26 16:45:04;;;;;;;5.45;2.20;;;;;;;21.42;73.93;101470.41;5277656;28;20020;-69
2022/08/26 16:47:36;;;;;;;7.50;3.10;;;;;;;21.55;74.58;101466.47;5253097;28;20777;-69
2022/08/26 16:50:11;;;;;;;8.10;2.40;;;;;;;21.55;74.70;101472.09;5256748;28;20052;-68
2022/08/26 16:52:43;;;;;;;7.93;2.38;;;;;;;21.57;73.92;101471.75;5254548;28;20570;-67
2022/08/26 16:55:15;;;;;;;4.18;2.17;;;;;;;21.53;73.21;101456.69;5280626;28;20107;-67
2022/08/26 16:57:47;;;;;;;7.80;2.92;;;;;;;21.44;72.52;101465.25;5260056;28;20025;-65
2022/08/26 17:00:27;;;;;;;4.55;1.65;;;;;;;21.46;73.43;101471.38;5246697;28;20045;-66
2022/08/26 17:02:59;;;;;;;3.95;1.90;;;;;;;21.38;72.96;101467.47;5272626;28;20044;-68
2022/08/26 17:05:31;;;;;;;6.53;2.45;;;;;;;21.36;73.49;101468.97;5269968;28;20036;-67
2022/08/26 17:08:03;;;;;;;13.90;12.50;;;;;;;21.47;73.71;101475.81;5261359;28;20528;-68
2022/08/26 17:10:35;;;;;;;9.02;3.60;;;;;;;21.43;73.18;101480.53;5267677;28;20090;-68
2022/08/26 17:13:06;;;;;;;8.38;2.42;;;;;;;21.34;73.23;101476.94;5276496;28;20029;-68
2022/08/26 17:15:37;;;;;;;5.43;2.45;;;;;;;21.35;72.10;101484.25;5261204;28;20025;-68
2022/08/26 17:18:11;;;;;;;5.07;2.10;;;;;;;21.47;72.44;101487.13;5253387;28;20060;-68
2022/08/26 17:20:43;;;;;;;5.20;1.88;;;;;;;21.24;72.25;101483.84;5252614;28;20496;-68
2022/08/26 17:23:18;;;;;;;4.90;2.58;;;;;;;21.43;72.68;101491.81;5270589;28;20127;-68
2022/08/26 17:25:49;;;;;;;8.02;2.10;;;;;;;21.16;73.23;101488.38;5246084;28;20040;-68
2022/08/26 17:28:21;;;;;;;6.95;2.45;;;;;;;21.33;72.86;101478.94;5259107;28;20057;-68
2022/08/26 17:30:55;;;;;;;4.05;1.70;;;;;;;21.25;72.38;101482.69;5265376;28;20123;-74
2022/08/26 17:33:27;;;;;;;7.77;2.33;;;;;;;21.27;72.17;101495.28;5246670;28;20021;-75
